Time;durP1;ratioP1;P1;durP2;ratioP2;P2;SDS_P1;SDS_P2;PMS_P1;PMS_P2;Temp;Humidity;BMP_temperature;BMP_pressure;BME280_temperature;BME280_humidity;BME280_pressure;Samples;Min_cycle;Max_cycle;Signal;HPM_P1;HPM_P2
2022/03/15 00:00:44;;;;;;;36.42;21.13;;;;;;;4.16;100.00;67240.72;5077508;28;20044;-89
2022/03/15 00:03:09;;;;;;;41.67;20.20;;;;;;;4.11;100.00;67232.44;5083624;28;20036;-87
2022/03/15 00:05:36;;;;;;;38.20;20.75;;;;;;;4.07;100.00;67233.78;5092226;28;20067;-80
2022/03/15 00:08:05;;;;;;;41.95;21.48;;;;;;;4.09;100.00;67235.47;5077676;28;20132;-83
2022/03/15 00:10:34;;;;;;;34.10;20.38;;;;;;;4.05;100.00;67226.25;5078207;28;20040;-83
2022/03/15 00:13:00;;;;;;;33.08;18.73;;;;;;;3.97;100.00;67225.09;5079135;28;20044;-84
2022/03/15 00:15:27;;;;;;;35.85;19.50;;;;;;;3.94;100.00;67219.09;5083617;28;20040;-85
2022/03/15 00:17:53;;;;;;;35.78;19.20;;;;;;;3.93;100.00;67215.34;5112826;28;20043;-80
2022/03/15 00:20:21;;;;;;;35.35;18.95;;;;;;;3.84;100.00;67211.00;5099378;28;20507;-82
2022/03/15 00:22:47;;;;;;;37.85;19.90;;;;;;;3.93;100.00;67215.91;5108891;28;20036;-86
2022/03/15 00:25:16;;;;;;;34.65;20.75;;;;;;;3.91;100.00;67216.28;5094409;28;20031;-85
2022/03/15 00:27:47;;;;;;;36.38;20.00;;;;;;;4.03;100.00;67229.25;5095002;28;20047;-85
2022/03/15 00:30:14;;;;;;;36.10;21.15;;;;;;;4.00;100.00;67225.84;5096183;28;20034;-82
2022/03/15 00:32:40;;;;;;;33.00;20.50;;;;;;;3.96;100.00;67221.91;5078130;28;20123;-84
2022/03/15 00:35:08;;;;;;;31.13;19.65;;;;;;;3.96;100.00;67224.00;5079813;28;20046;-81
2022/03/15 00:37:36;;;;;;;35.65;19.58;;;;;;;3.95;100.00;67214.97;5099730;28;20050;-82
2022/03/15 00:40:02;;;;;;;36.40;20.90;;;;;;;3.94;100.00;67221.72;5095195;28;20126;-92
2022/03/15 00:42:28;;;;;;;31.58;18.88;;;;;;;3.92;100.00;67214.78;5092933;28;20070;-87
2022/03/15 00:44:53;;;;;;;35.22;19.58;;;;;;;3.89;100.00;67208.75;5106505;28;20741;-90
2022/03/15 00:47:18;;;;;;;34.85;18.63;;;;;;;3.93;100.00;67215.34;5089075;28;20051;-89
2022/03/15 00:49:44;;;;;;;33.38;19.20;;;;;;;3.92;100.00;67216.84;5058809;28;20035;-84
2022/03/15 00:52:09;;;;;;;29.40;18.55;;;;;;;3.84;100.00;67205.75;5098628;28;20039;-86
2022/03/15 00:54:35;;;;;;;38.15;20.42;;;;;;;3.81;100.00;67202.94;5088604;28;20067;-89
2022/03/15 00:57:00;;;;;;;34.50;20.38;;;;;;;3.87;100.00;67211.19;5073502;28;20533;-88
2022/03/15 00:59:26;;;;;;;36.58;20.27;;;;;;;3.78;100.00;67204.81;5075198;28;20035;-85
2022/03/15 01:01:51;;;;;;;31.65;19.80;;;;;;;3.83;100.00;67205.19;5058083;28;20131;-84
2022/03/15 01:04:17;;;;;;;29.52;18.60;;;;;;;3.76;100.00;67199.91;5074322;28;20051;-83
2022/03/15 01:06:45;;;;;;;33.13;19.80;;;;;;;3.76;100.00;67197.28;5059976;28;20043;-85
2022/03/15 01:09:10;;;;;;;34.50;20.30;;;;;;;3.75;100.00;67198.78;5095276;28;20044;-81
2022/03/15 01:11:36;;;;;;;29.80;17.77;;;;;;;3.73;100.00;67193.34;5095330;28;20046;-86
2022/03/15 01:14:02;;;;;;;36.10;19.27;;;;;;;3.75;100.00;67196.16;5069729;28;20047;-86
2022/03/15 01:16:27;;;;;;;34.15;19.02;;;;;;;3.79;100.00;67203.28;5073500;28;20113;-85
2022/03/15 01:18:53;;;;;;;32.42;19.20;;;;;;;3.82;100.00;67206.13;5066185;28;20070;-89
2022/03/15 01:21:19;;;;;;;31.58;18.80;;;;;;;3.78;100.00;67199.53;5066027;28;20040;-84
2022/03/15 01:23:45;;;;;;;33.22;18.88;;;;;;;3.80;100.00;67199.16;5066598;28;20040;-82
2022/03/15 01:26:10;;;;;;;33.35;19.52;;;;;;;3.87;100.00;67211.19;5058678;28;20050;-86
2022/03/15 01:28:36;;;;;;;33.50;20.65;;;;;;;3.80;100.00;67204.44;5042614;28;20044;-86
2022/03/15 01:31:02;;;;;;;32.85;20.98;;;;;;;3.77;100.00;67201.06;5096319;28;20387;-86
2022/03/15 01:33:27;;;;;;;31.52;20.75;;;;;;;3.79;100.00;67200.66;5095784;28;20047;-85
2022/03/15 01:35:53;;;;;;;31.13;19.80;;;;;;;3.74;100.00;67197.66;5074557;28;20093;-84
2022/03/15 01:38:19;;;;;;;37.72;21.73;;;;;;;3.75;100.00;67201.41;5076594;28;20508;-82
2022/03/15 01:40:44;;;;;;;38.20;21.63;;;;;;;3.68;100.00;67188.25;5077744;28;20055;-88
2022/03/15 01:43:11;;;;;;;32.97;19.67;;;;;;;3.59;100.00;67180.72;5099665;28;20047;-90
2022/03/15 01:45:38;;;;;;;32.78;19.27;;;;;;;3.64;100.00;67186.38;5086378;28;20453;-84
2022/03/15 01:48:05;;;;;;;36.65;20.52;;;;;;;3.67;100.00;67183.94;5072633;28;20082;-84
2022/03/15 01:50:31;;;;;;;31.70;19.40;;;;;;;3.63;100.00;67185.25;5073336;28;20040;-84
2022/03/15 01:52:57;;;;;;;33.00;19.17;;;;;;;3.61;100.00;67178.28;5057986;28;20373;-85
2022/03/15 01:55:22;;;;;;;34.70;22.23;;;;;;;3.64;100.00;67185.81;5077698;28;20040;-85
2022/03/15 01:57:49;;;;;;;38.15;21.33;;;;;;;3.60;100.00;67182.44;5074251;28;20587;-90
2022/03/15 02:00:15;;;;;;;33.67;21.15;;;;;;;3.60;100.00;67179.25;5058210;28;20040;-88
2022/03/15 02:02:41;;;;;;;36.50;20.50;;;;;;;3.56;100.00;67174.72;5099131;28;20044;-84
2022/03/15 02:05:07;;;;;;;39.25;22.75;;;;;;;3.57;100.00;67183.75;5060631;28;20074;-82
2022/03/15 02:07:32;;;;;;;42.08;22.70;;;;;;;3.60;100.00;67179.25;5092211;28;20417;-92
2022/03/15 02:09:58;;;;;;;36.28;21.38;;;;;;;3.56;100.00;67177.34;5078256;28;20062;-82
2022/03/15 02:12:23;;;;;;;30.52;20.20;;;;;;;3.54;100.00;67175.66;5079865;28;20035;-86
2022/03/15 02:14:49;;;;;;;34.58;21.30;;;;;;;3.52;100.00;67175.47;5081249;28;20073;-87
2022/03/15 02:17:14;;;;;;;35.63;20.30;;;;;;;3.54;100.00;67180.34;5080667;28;20035;-89
2022/03/15 02:19:41;;;;;;;40.85;21.35;;;;;;;3.51;100.00;67169.06;5116355;28;20098;-86
2022/03/15 02:22:06;;;;;;;34.58;21.58;;;;;;;3.56;100.00;67179.97;5096993;28;20044;-88
2022/03/15 02:24:32;;;;;;;37.47;23.48;;;;;;;3.63;100.00;67184.69;5084063;28;20032;-89
2022/03/15 02:26:58;;;;;;;38.33;23.30;;;;;;;3.63;100.00;67185.25;5061372;28;20043;-83
2022/03/15 02:29:24;;;;;;;34.40;20.58;;;;;;;3.56;100.00;67177.34;5097559;28;20032;-87
2022/03/15 02:31:49;;;;;;;38.35;22.45;;;;;;;3.57;100.00;67176.41;5102494;28;20063;-86
2022/03/15 02:34:18;;;;;;;36.22;20.52;;;;;;;3.58;100.00;67182.25;5112185;27;20495;-85
2022/03/15 02:36:44;;;;;;;41.63;22.05;;;;;;;3.56;100.00;67177.34;5086757;28;20051;-86
2022/03/15 02:39:16;;;;;;;37.22;23.13;;;;;;;3.61;100.00;67183.56;5108050;28;20558;-81
2022/03/15 02:41:43;;;;;;;36.90;21.40;;;;;;;3.66;100.00;67188.63;5074755;28;20051;-87
2022/03/15 02:44:09;;;;;;;39.25;22.50;;;;;;;3.69;100.00;67186.75;5083892;28;20113;-86
2022/03/15 02:46:39;;;;;;;34.53;21.10;;;;;;;3.70;100.00;67193.16;5074736;28;20131;-83
2022/03/15 02:49:07;;;;;;;37.63;20.95;;;;;;;3.66;100.00;67186.00;5076208;28;20035;-85
2022/03/15 02:51:36;;;;;;;34.60;21.93;;;;;;;3.71;100.00;67193.69;5075745;28;20036;-85
2022/03/15 02:54:08;;;;;;;34.58;18.83;;;;;;;3.61;100.00;67183.00;5103584;28;20051;-88
2022/03/15 02:56:38;;;;;;;35.22;20.63;;;;;;;3.67;100.00;67187.13;5104303;28;20889;-88
2022/03/15 02:59:10;;;;;;;37.00;21.80;;;;;;;3.71;100.00;67196.34;5072004;28;20100;-87
2022/03/15 03:01:37;;;;;;;42.45;22.88;;;;;;;3.72;100.00;67200.66;5103109;28;20039;-84
2022/03/15 03:04:03;;;;;;;38.20;22.02;;;;;;;3.70;100.00;67193.16;5072116;28;20487;-83
2022/03/15 03:06:41;;;;;;;37.53;21.88;;;;;;;3.70;100.00;67193.16;5116492;28;20036;-80
2022/03/15 03:09:07;;;;;;;39.70;22.75;;;;;;;3.72;100.00;67195.41;5112023;28;20051;-82
2022/03/15 03:11:35;;;;;;;38.53;23.33;;;;;;;3.74;100.00;67197.66;5111700;28;20049;-80
2022/03/15 03:14:01;;;;;;;37.05;22.85;;;;;;;3.71;100.00;67191.06;5078136;28;20054;-87
2022/03/15 03:16:29;;;;;;;33.50;20.98;;;;;;;3.73;100.00;67199.16;5116613;27;20044;-84
2022/03/15 03:18:58;;;;;;;35.95;22.10;;;;;;;3.77;100.00;67201.06;5076211;28;20036;-82
2022/03/15 03:21:26;;;;;;;35.15;22.13;;;;;;;3.75;100.00;67198.78;5083809;28;20143;-84
2022/03/15 03:23:53;;;;;;;40.17;22.65;;;;;;;3.76;100.00;67199.91;5101240;28;20085;-87
2022/03/15 03:26:27;;;;;;;38.22;23.23;;;;;;;3.79;100.00;67203.28;5091435;28;20046;-88
2022/03/15 03:28:53;;;;;;;35.63;22.08;;;;;;;3.65;100.00;67184.88;5085272;28;20434;-86
2022/03/15 03:31:19;;;;;;;41.88;23.92;;;;;;;3.71;100.00;67191.66;5080799;28;20039;-85
2022/03/15 03:33:44;;;;;;;37.70;23.30;;;;;;;3.71;100.00;67189.03;5076619;28;20603;-86
2022/03/15 03:36:10;;;;;;;38.47;23.85;;;;;;;3.74;100.00;67195.03;5071999;28;20047;-88
2022/03/15 03:38:47;;;;;;;36.33;22.20;;;;;;;3.74;100.00;67197.66;5086388;28;20116;-84
2022/03/15 03:41:12;;;;;;;39.75;22.77;;;;;;;3.74;100.00;67199.72;5107475;28;20047;-87
2022/03/15 03:43:45;;;;;;;40.10;23.73;;;;;;;3.74;100.00;67197.09;5079987;28;20171;-82
2022/03/15 03:46:13;;;;;;;37.92;22.25;;;;;;;3.74;100.00;67197.66;5089993;28;20048;-92
2022/03/15 03:48:39;;;;;;;37.45;22.20;;;;;;;3.76;100.00;67199.34;5110696;27;20036;-87
2022/03/15 03:51:13;;;;;;;36.25;21.60;;;;;;;3.78;100.00;67204.25;5075938;28;20127;-86
2022/03/15 03:53:39;;;;;;;36.65;23.13;;;;;;;3.76;100.00;67199.91;5104011;28;20078;-85
2022/03/15 03:56:07;;;;;;;37.15;22.25;;;;;;;3.75;100.00;67198.22;5103950;28;20122;-89
2022/03/15 03:58:34;;;;;;;38.80;23.80;;;;;;;3.77;100.00;67201.06;5055370;28;20083;-87
2022/03/15 04:01:03;;;;;;;37.05;22.33;;;;;;;3.76;100.00;67199.34;5071059;28;20050;-85
2022/03/15 04:03:33;;;;;;;36.70;22.95;;;;;;;3.75;100.00;67198.78;5079701;28;20038;-89
2022/03/15 04:06:03;;;;;;;38.08;23.27;;;;;;;3.67;100.00;67189.75;5103794;28;20044;-81
2022/03/15 04:08:31;;;;;;;39.38;22.60;;;;;;;3.69;100.00;67192.03;5084373;28;20430;-87
2022/03/15 04:10:58;;;;;;;39.43;23.50;;;;;;;3.73;100.00;67198.59;5104300;28;20082;-85
2022/03/15 04:13:26;;;;;;;42.45;23.63;;;;;;;3.78;100.00;67199.53;5075963;28;20036;-84
2022/03/15 04:15:52;;;;;;;35.58;22.98;;;;;;;3.74;100.00;67195.03;5081028;28;20050;-87
2022/03/15 04:18:25;;;;;;;38.22;21.42;;;;;;;3.78;100.00;67201.63;5077395;28;20654;-81
2022/03/15 04:20:50;;;;;;;33.38;21.33;;;;;;;3.72;100.00;67194.84;5077304;28;20048;-82
2022/03/15 04:23:23;;;;;;;37.70;23.58;;;;;;;3.77;100.00;67195.78;5062763;28;20126;-86
2022/03/15 04:25:51;;;;;;;37.58;22.08;;;;;;;3.76;100.00;67199.91;5074796;28;20468;-86
2022/03/15 04:28:18;;;;;;;33.13;21.08;;;;;;;3.79;100.00;67202.72;5051162;28;20055;-88
2022/03/15 04:30:43;;;;;;;40.85;23.38;;;;;;;3.77;100.00;67201.06;5071023;28;20907;-86
2022/03/15 04:33:09;;;;;;;39.25;23.08;;;;;;;3.75;100.00;67193.53;5069448;28;20140;-84
2022/03/15 04:35:37;;;;;;;40.55;22.40;;;;;;;3.73;100.00;67193.34;5091478;28;20588;-86
2022/03/15 04:38:02;;;;;;;40.47;22.48;;;;;;;3.76;100.00;67199.34;5077754;28;20034;-89
2022/03/15 04:40:28;;;;;;;37.90;23.27;;;;;;;3.83;100.00;67207.81;5072254;28;20122;-85
2022/03/15 04:43:01;;;;;;;36.67;23.58;;;;;;;3.86;100.00;67210.09;5100023;28;20063;-81
2022/03/15 04:45:28;;;;;;;44.28;25.95;;;;;;;3.90;100.00;67211.97;5099046;28;20507;-86
2022/03/15 04:47:55;;;;;;;40.67;24.77;;;;;;;3.93;100.00;67215.91;5075060;28;20127;-89
2022/03/15 04:50:21;;;;;;;39.95;24.73;;;;;;;3.93;100.00;67215.91;5073169;28;20741;-86
2022/03/15 04:52:55;;;;;;;42.80;23.95;;;;;;;3.96;100.00;67221.34;5080758;28;20056;-84
2022/03/15 04:55:30;;;;;;;40.58;24.48;;;;;;;3.97;100.00;67223.06;5098056;28;20107;-90
2022/03/15 04:57:59;;;;;;;37.78;24.77;;;;;;;4.01;100.00;67224.38;5085280;28;20077;-86
2022/03/15 05:00:25;;;;;;;37.08;25.40;;;;;;;3.99;100.00;67225.31;5095472;28;20040;-85
2022/03/15 05:02:51;;;;;;;39.83;26.50;;;;;;;4.00;100.00;67226.44;5089947;28;20040;-85
2022/03/15 05:05:16;;;;;;;42.70;24.58;;;;;;;4.01;100.00;67227.56;5077546;28;20108;-88
2022/03/15 05:07:42;;;;;;;35.42;23.33;;;;;;;4.00;100.00;67231.72;5081386;28;20201;-90
2022/03/15 05:12:53;;;;;;;41.53;23.90;;;;;;;4.00;100.00;67225.84;5064205;28;20063;-84
2022/03/15 05:15:20;;;;;;;37.15;23.27;;;;;;;3.99;100.00;67222.09;5108250;28;20528;-86
2022/03/15 05:17:49;;;;;;;38.08;24.55;;;;;;;4.03;100.00;67229.25;5100158;28;20153;-87
2022/03/15 05:20:20;;;;;;;37.28;24.58;;;;;;;4.04;100.00;67228.31;5078209;28;20475;-89
2022/03/15 05:22:46;;;;;;;39.90;24.83;;;;;;;4.08;100.00;67234.91;5077148;28;20051;-86
2022/03/15 05:25:17;;;;;;;37.47;25.02;;;;;;;4.11;100.00;67238.28;5080143;28;20047;-85
2022/03/15 05:27:43;;;;;;;36.83;24.05;;;;;;;4.12;100.00;67239.41;5116228;28;20039;-87
2022/03/15 05:30:17;;;;;;;36.42;23.88;;;;;;;4.12;100.00;67239.41;5080905;28;20115;-84
2022/03/15 05:32:43;;;;;;;35.17;24.00;;;;;;;4.13;100.00;67234.72;5086381;28;20597;-86
2022/03/15 05:35:15;;;;;;;39.30;25.48;;;;;;;4.16;100.00;67243.94;5094124;28;20048;-89
2022/03/15 05:37:42;;;;;;;39.10;24.70;;;;;;;4.12;100.00;67238.84;5117551;28;20035;-87
2022/03/15 05:40:09;;;;;;;33.33;22.73;;;;;;;4.16;100.00;67243.94;5109860;28;20071;-82
2022/03/15 05:42:35;;;;;;;36.55;24.65;;;;;;;4.19;100.00;67246.75;5096232;28;20086;-84
2022/03/15 05:45:04;;;;;;;42.08;25.38;;;;;;;4.23;100.00;67251.84;5096014;27;20276;-87
2022/03/15 05:47:29;;;;;;;36.90;24.90;;;;;;;4.27;100.00;67261.63;5085377;28;20039;-83
2022/03/15 05:49:55;;;;;;;39.35;25.20;;;;;;;4.28;100.00;67254.84;5102005;28;20040;-83
2022/03/15 05:52:30;;;;;;;37.47;25.27;;;;;;;4.28;100.00;67256.91;5071402;28;20131;-84
2022/03/15 05:55:00;;;;;;;36.25;26.05;;;;;;;4.32;100.00;67260.88;5060269;28;20493;-86
2022/03/15 05:57:25;;;;;;;38.27;25.87;;;;;;;4.34;100.00;67257.84;5123037;27;20066;-82
2022/03/15 05:59:51;;;;;;;37.25;24.98;;;;;;;4.32;100.00;67255.59;5096516;28;20692;-83
2022/03/15 06:02:16;;;;;;;37.53;24.85;;;;;;;4.35;100.00;67261.63;5117336;28;20051;-84
2022/03/15 06:04:42;;;;;;;39.25;24.20;;;;;;;4.35;100.00;67262.19;5116640;28;20400;-88
2022/03/15 06:07:07;;;;;;;36.38;25.05;;;;;;;4.36;100.00;67260.09;5083155;28;20391;-87
2022/03/15 06:09:33;;;;;;;37.47;24.05;;;;;;;4.37;100.00;67267.06;5069019;28;20073;-82
2022/03/15 06:11:58;;;;;;;38.35;25.52;;;;;;;4.41;100.00;67268.38;5090724;28;20040;-82
2022/03/15 06:14:24;;;;;;;41.92;26.27;;;;;;;4.43;100.00;67273.84;5075648;28;20043;-83
2022/03/15 06:16:50;;;;;;;42.05;27.10;;;;;;;4.44;100.00;67269.69;5090876;28;20067;-82
2022/03/15 06:19:21;;;;;;;42.05;25.67;;;;;;;4.46;100.00;67276.66;5071626;28;20070;-88
2022/03/15 06:21:47;;;;;;;43.13;27.60;;;;;;;4.50;100.00;67278.53;5097505;27;20068;-82
2022/03/15 06:24:12;;;;;;;41.53;25.63;;;;;;;4.51;100.00;67282.31;5121999;27;20035;-84
2022/03/15 06:26:38;;;;;;;39.35;26.55;;;;;;;4.52;100.00;67278.19;5099264;28;20071;-90
2022/03/15 06:29:05;;;;;;;36.08;26.70;;;;;;;4.51;100.00;67277.59;5083522;28;20032;-88
2022/03/15 06:31:32;;;;;;;42.47;26.45;;;;;;;4.55;100.00;67286.84;5100345;28;20077;-85
2022/03/15 06:33:58;;;;;;;39.33;26.38;;;;;;;4.57;100.00;67283.81;5107349;28;20471;-82
2022/03/15 06:36:23;;;;;;;39.47;25.20;;;;;;;4.55;100.00;67281.56;5099400;28;20100;-82
2022/03/15 06:38:49;;;;;;;38.70;26.25;;;;;;;4.61;100.00;67290.97;5102160;28;20047;-82
2022/03/15 06:41:15;;;;;;;37.72;27.30;;;;;;;4.66;100.00;67301.88;5096650;28;20065;-83
2022/03/15 06:43:41;;;;;;;39.72;26.58;;;;;;;4.67;100.00;67295.09;5108065;28;20116;-83
2022/03/15 06:46:07;;;;;;;41.60;27.15;;;;;;;4.68;100.00;67301.50;5094213;28;20046;-83
2022/03/15 06:48:34;;;;;;;40.17;26.67;;;;;;;4.71;100.00;67304.88;5110081;28;20488;-82
2022/03/15 06:50:59;;;;;;;37.95;25.42;;;;;;;4.74;100.00;67305.63;5124998;27;20062;-82
2022/03/15 06:53:25;;;;;;;39.88;26.27;;;;;;;4.85;100.00;67319.56;5095505;28;20523;-85
2022/03/15 06:55:53;;;;;;;38.30;25.38;;;;;;;4.88;100.00;67325.59;5062790;28;20043;-84
2022/03/15 06:58:20;;;;;;;39.53;26.50;;;;;;;4.90;100.00;67319.94;5073070;28;20096;-84
2022/03/15 07:00:47;;;;;;;38.95;27.27;;;;;;;4.96;100.00;67329.38;5098936;28;20074;-87
2022/03/15 07:03:13;;;;;;;34.33;24.40;;;;;;;5.04;100.00;67341.03;5120005;28;20494;-87
2022/03/15 07:05:39;;;;;;;38.78;24.48;;;;;;;5.08;100.00;67348.19;5109970;28;20071;-84
2022/03/15 07:08:04;;;;;;;38.38;25.30;;;;;;;5.14;100.00;67349.13;5065197;28;20036;-89
2022/03/15 07:10:30;;;;;;;33.90;23.35;;;;;;;5.22;100.00;67360.81;5083502;28;20032;-87
2022/03/15 07:12:55;;;;;;;40.00;24.20;;;;;;;5.30;100.00;67366.66;5079271;28;20067;-88
2022/03/15 07:15:21;;;;;;;33.47;22.92;;;;;;;5.35;100.00;67369.63;5078696;28;20451;-86
2022/03/15 07:17:57;;;;;;;32.50;22.52;;;;;;;5.43;100.00;67378.69;5070924;28;20089;-85
2022/03/15 07:20:24;;;;;;;34.80;22.35;;;;;;;5.46;100.00;67386.78;5074502;28;20039;-84
2022/03/15 07:22:50;;;;;;;33.65;22.25;;;;;;;5.50;100.00;67389.25;5092309;28;20059;-84
2022/03/15 07:25:16;;;;;;;36.03;22.70;;;;;;;5.55;100.00;67394.91;5088878;28;20043;-84
2022/03/15 07:27:42;;;;;;;31.67;21.40;;;;;;;5.64;100.00;67407.13;5102350;28;20484;-85
2022/03/15 07:30:09;;;;;;;33.15;22.00;;;;;;;5.71;100.00;67409.19;5094543;28;20043;-84
2022/03/15 07:32:34;;;;;;;28.77;19.77;;;;;;;5.75;100.00;67421.63;5082446;28;20044;-83
2022/03/15 07:35:00;;;;;;;29.67;20.15;;;;;;;5.80;100.00;67425.22;5086708;28;20128;-83
2022/03/15 07:37:25;;;;;;;28.80;19.17;;;;;;;5.85;100.00;67432.94;5071570;28;20392;-83
2022/03/15 07:39:51;;;;;;;28.92;19.10;;;;;;;5.87;100.00;67433.13;5100551;28;20036;-85
2022/03/15 07:42:16;;;;;;;27.00;18.05;;;;;;;5.95;100.00;67435.78;5061331;28;20492;-84
2022/03/15 07:44:42;;;;;;;30.27;19.63;;;;;;;5.98;100.00;67444.44;5085151;28;20039;-87
2022/03/15 07:47:08;;;;;;;25.60;18.48;;;;;;;;;;5080506;28;20050;-84
2022/03/15 07:49:34;;;;;;;28.38;18.70;;;;;;;6.11;100.00;67456.50;5087531;28;20035;-83
2022/03/15 07:51:59;;;;;;;25.08;18.05;;;;;;;6.12;100.00;67459.72;5079098;28;20040;-85
2022/03/15 07:54:25;;;;;;;27.58;18.10;;;;;;;6.17;100.00;67462.72;5107786;28;20043;-83
2022/03/15 07:56:51;;;;;;;22.35;17.52;;;;;;;6.21;100.00;67467.25;5087736;28;20245;-85
2022/03/15 07:59:16;;;;;;;25.17;17.42;;;;;;;6.27;100.00;67476.66;5081788;28;20058;-86
2022/03/15 08:01:41;;;;;;;28.35;18.83;;;;;;;6.30;100.00;67478.00;5106855;28;20040;-86
2022/03/15 08:04:07;;;;;;;29.13;17.73;;;;;;;6.34;100.00;67484.59;5079088;28;20548;-85
2022/03/15 08:06:35;;;;;;;24.60;16.77;;;;;;;6.39;100.00;67484.97;5068957;28;20040;-84
2022/03/15 08:09:01;;;;;;;25.35;16.58;;;;;;;6.45;100.00;67497.03;5114287;28;20047;-84
2022/03/15 08:11:26;;;;;;;27.30;16.88;;;;;;;6.50;100.00;67500.06;5096736;28;20063;-87
2022/03/15 08:13:54;;;;;;;27.00;15.88;;;;;;;;;;5081427;28;20078;-83
2022/03/15 08:16:22;;;;;;;23.40;17.30;;;;;;;6.60;100.00;67507.59;5123401;27;20500;-84
2022/03/15 08:18:51;;;;;;;27.45;17.48;;;;;;;6.66;100.00;67514.94;5119513;28;20541;-84
2022/03/15 08:21:16;;;;;;;24.70;17.35;;;;;;;6.70;100.00;67524.16;5073212;28;20485;-84
2022/03/15 08:23:46;;;;;;;24.45;16.83;;;;;;;;;;5079954;28;20108;-83
2022/03/15 08:26:14;;;;;;;;;;;;;;;6.81;100.00;67536.06;5108876;28;20057;-83
2022/03/15 08:28:40;;;;;;;21.92;16.90;;;;;;;6.79;100.00;67534.38;5093372;28;19983;-83
2022/03/15 08:31:05;;;;;;;24.85;16.08;;;;;;;6.85;100.00;67540.56;5119739;27;22017;-83
2022/03/15 08:33:30;;;;;;;25.10;15.43;;;;;;;6.89;100.00;67543.03;5074664;28;20047;-84
2022/03/15 08:35:56;;;;;;;24.13;14.85;;;;;;;6.96;100.00;67550.38;5074375;28;20055;-83
2022/03/15 08:38:21;;;;;;;23.40;14.48;;;;;;;7.00;100.00;67555.47;5105394;28;20045;-83
2022/03/15 08:40:49;;;;;;;21.23;14.68;;;;;;;7.08;100.00;67560.72;5068810;28;20051;-84
2022/03/15 08:43:21;;;;;;;20.83;14.43;;;;;;;7.12;100.00;67565.28;5073930;28;20039;-83
2022/03/15 08:45:48;;;;;;;21.83;15.55;;;;;;;7.19;100.00;67578.47;5107442;28;20050;-83
2022/03/15 08:48:14;;;;;;;24.10;14.32;;;;;;;7.21;100.00;67578.09;5096088;28;20044;-87
2022/03/15 08:50:39;;;;;;;22.70;13.45;;;;;;;7.26;100.00;67581.13;5077466;28;20038;-83
2022/03/15 08:53:07;;;;;;;19.75;13.80;;;;;;;7.33;100.00;67594.31;5093119;28;20460;-84
2022/03/15 08:55:35;;;;;;;19.33;13.57;;;;;;;7.35;100.00;67593.94;5092038;28;20483;-83
2022/03/15 08:58:02;;;;;;;20.85;13.20;;;;;;;7.42;100.00;67601.88;5073828;28;20040;-83
2022/03/15 09:00:28;;;;;;;21.35;13.35;;;;;;;7.46;100.00;67609.03;5112240;28;20104;-83
2022/03/15 09:02:54;;;;;;;20.67;13.50;;;;;;;7.50;100.00;67609.78;5110527;28;20079;-86
2022/03/15 09:05:20;;;;;;;19.60;12.90;;;;;;;7.56;100.00;67614.50;5101056;28;20036;-84
2022/03/15 09:07:51;;;;;;;21.55;14.73;;;;;;;7.60;100.00;67613.19;5092397;28;20070;-83
2022/03/15 09:10:24;;;;;;;21.55;12.57;;;;;;;7.62;100.00;67623.38;5088918;28;20046;-84
2022/03/15 09:12:55;;;;;;;20.35;12.40;;;;;;;7.68;100.00;67630.16;5079281;28;20066;-83
2022/03/15 09:15:20;;;;;;;20.38;12.40;;;;;;;;;;5126146;27;20111;-83
2022/03/15 09:17:46;;;;;;;18.95;12.73;;;;;;;7.76;100.00;67639.22;5094849;28;20056;-83
2022/03/15 09:20:17;;;;;;;21.08;12.60;;;;;;;7.81;100.00;67642.25;5110903;28;20043;-84
2022/03/15 09:22:44;;;;;;;22.23;12.75;;;;;;;7.88;100.00;67649.59;5115745;28;20040;-83
2022/03/15 09:25:13;;;;;;;18.50;11.55;;;;;;;7.90;100.00;67652.41;5100276;28;20085;-87
2022/03/15 09:27:41;;;;;;;24.17;13.73;;;;;;;8.02;100.00;67668.09;5116133;28;20046;-83
2022/03/15 09:30:07;;;;;;;19.35;11.90;;;;;;;8.05;100.00;67668.84;5111221;28;20043;-83
2022/03/15 09:32:33;;;;;;;20.40;12.73;;;;;;;8.09;100.00;67672.81;5094348;28;20028;-83
2022/03/15 09:35:02;;;;;;;20.60;12.13;;;;;;;8.16;100.00;67680.72;5098054;28;20044;-84
2022/03/15 09:37:29;;;;;;;19.23;12.32;;;;;;;8.27;100.00;67692.63;5095587;28;20078;-83
2022/03/15 09:39:57;;;;;;;18.30;11.32;;;;;;;8.31;99.73;67697.16;5118780;27;20056;-83
2022/03/15 09:42:24;;;;;;;17.07;11.23;;;;;;;8.44;100.00;67714.00;5096106;28;20177;-84
2022/03/15 09:44:50;;;;;;;18.23;11.98;;;;;;;8.50;99.68;67718.13;5094401;28;20048;-83
2022/03/15 09:47:22;;;;;;;17.63;10.68;;;;;;;8.54;99.16;67725.88;5091471;28;20036;-83
2022/03/15 09:49:54;;;;;;;16.90;10.57;;;;;;;8.63;98.40;67732.28;5094431;28;20041;-86
2022/03/15 09:52:21;;;;;;;15.55;10.38;;;;;;;8.70;97.98;67740.81;5092560;28;20060;-85
2022/03/15 09:54:48;;;;;;;17.60;9.75;;;;;;;8.74;97.37;67740.00;5094735;28;20052;-83
2022/03/15 09:57:13;;;;;;;17.67;10.32;;;;;;;8.84;96.16;67758.75;5090887;28;20111;-83
2022/03/15 09:59:39;;;;;;;15.57;9.48;;;;;;;8.93;96.74;67760.41;5089874;28;20484;-84
2022/03/15 10:02:07;;;;;;;16.88;9.50;;;;;;;9.03;96.78;67777.06;5090556;28;20531;-86
2022/03/15 10:04:36;;;;;;;13.23;8.07;;;;;;;9.06;93.52;67779.88;5094750;28;20040;-85
2022/03/15 10:07:04;;;;;;;13.43;7.97;;;;;;;9.05;93.36;67779.31;5067527;28;20036;-83
2022/03/15 10:09:38;;;;;;;15.45;8.23;;;;;;;9.13;93.35;67791.06;5073952;27;20047;-85
2022/03/15 10:12:08;;;;;;;15.35;8.90;;;;;;;9.23;94.38;67799.16;5098635;28;20048;-85
2022/03/15 10:15:14;;;;;;;14.77;9.43;;;;;;;9.37;94.74;67815.03;5092438;28;20078;-83
2022/03/15 10:17:43;;;;;;;12.55;7.95;;;;;;;9.41;92.89;67821.66;5071573;28;20062;-83
2022/03/15 10:20:13;;;;;;;12.65;7.50;;;;;;;9.46;92.55;67825.22;5089863;28;20049;-83
2022/03/15 10:22:50;;;;;;;15.40;7.18;;;;;;;9.54;91.18;67833.75;5089344;28;20048;-85
2022/03/15 10:25:16;;;;;;;13.52;8.27;;;;;;;9.63;91.20;67838.63;5084956;27;20101;-87
2022/03/15 10:27:41;;;;;;;15.73;7.88;;;;;;;;;;5100658;27;20044;-85
2022/03/15 10:30:08;;;;;;;13.88;7.63;;;;;;;;;;5099279;27;20074;-86
2022/03/15 10:32:33;;;;;;;16.30;7.43;;;;;;;9.69;89.29;67850.75;5092613;27;20043;-89
2022/03/15 10:35:08;;;;;;;12.48;7.13;;;;;;;9.74;90.11;67855.28;5080065;28;20040;-84
2022/03/15 10:37:35;;;;;;;10.93;7.35;;;;;;;9.77;89.87;67861.34;5074227;28;20096;-88
2022/03/15 10:40:04;;;;;;;10.82;6.40;;;;;;;9.77;88.71;67853.94;5074206;28;20044;-87
2022/03/15 10:42:29;;;;;;;12.50;6.40;;;;;;;9.81;89.01;67866.47;5054893;27;20048;-88
2022/03/15 10:44:56;;;;;;;12.18;7.22;;;;;;;;;;5111482;27;20044;-88
2022/03/15 10:47:22;;;;;;;11.45;7.05;;;;;;;9.83;88.31;67865.50;5075747;28;20388;-86
2022/03/15 10:49:51;;;;;;;12.30;6.43;;;;;;;9.83;87.63;67866.06;5092011;28;20033;-86
2022/03/15 10:52:28;;;;;;;;;;;;;;;9.84;87.49;67867.19;5073373;28;20047;-85
2022/03/15 10:54:53;;;;;;;13.35;7.20;;;;;;;9.79;88.02;67864.19;5106924;27;19968;-87
2022/03/15 10:57:19;;;;;;;10.70;6.88;;;;;;;9.82;87.17;67864.38;5091035;27;20040;-87
2022/03/15 10:59:44;;;;;;;11.13;6.30;;;;;;;9.87;87.22;67870.03;5055450;28;20122;-85
2022/03/15 11:02:12;;;;;;;11.50;6.70;;;;;;;9.94;87.24;67880.63;5070873;28;20070;-87
2022/03/15 11:04:46;;;;;;;9.75;5.90;;;;;;;9.94;85.83;67877.97;5069507;28;20055;-86
2022/03/15 11:07:12;;;;;;;12.27;6.63;;;;;;;9.92;85.89;67875.69;5088821;28;20096;-85
2022/03/15 11:09:38;;;;;;;11.43;5.90;;;;;;;9.99;86.63;67888.97;5084668;28;20300;-82
2022/03/15 11:12:08;;;;;;;14.43;6.80;;;;;;;9.94;85.29;67880.63;5086172;28;20040;-85
2022/03/15 11:14:46;;;;;;;12.20;6.25;;;;;;;9.90;85.25;67874.00;5078513;27;20051;-82
2022/03/15 11:17:19;;;;;;;14.02;6.85;;;;;;;9.88;85.57;67871.72;5109550;27;20065;-88
2022/03/15 11:19:45;;;;;;;12.48;7.05;;;;;;;9.89;86.39;67872.84;5087824;28;20036;-86
2022/03/15 11:22:12;;;;;;;12.30;6.70;;;;;;;9.96;86.42;67882.91;5079818;28;20047;-88
2022/03/15 11:24:43;;;;;;;16.33;6.75;;;;;;;10.00;85.21;67884.78;5087934;28;20032;-84
2022/03/15 11:27:12;;;;;;;13.30;7.50;;;;;;;10.00;85.80;67887.44;5107339;27;20036;-86